Terminal Aerodrome Forecast
Issued by NWS

Home | Current Version | Previous Version | Text Only | Print | Product List | Glossary On
Versions: 1 2 3 4 5 6 7 8 9 10 11 12 13 14 15 16 17 18 19 20
000
FTUS41 KBTV 201131
TAFMSS
TAF
KMSS 201131Z 2012/2112 00000KT P6SM OVC025
      TEMPO 2012/2014 6SM BR
     FM202100 06006KT P6SM SCT035
     FM210200 07003KT P6SM BKN040
     FM210700 VRB02KT P6SM BKN015=

USA.gov is the U.S. government's official web portal to all federal, state and local government web resources and services.